Time;durP1;ratioP1;P1;durP2;ratioP2;P2;SDS_P1;SDS_P2;PMS_P1;PMS_P2;Temp;Humidity;BMP_temperature;BMP_pressure;BME280_temperature;BME280_humidity;BME280_pressure;Samples;Min_cycle;Max_cycle;Signal;HPM_P1;HPM_P2
2021/01/21 00:01:29;;;;;;;90.57;43.05;;;;;;;-11.75;57.09;102107.64;1745674;80;20931;-81
2021/01/21 00:03:57;;;;;;;108.55;45.00;;;;;;;-11.71;57.06;102095.65;1745750;80;20955;-82
2021/01/21 00:06:25;;;;;;;94.05;43.70;;;;;;;-11.72;57.10;102104.87;1746115;80;20924;-81
2021/01/21 00:08:53;;;;;;;93.30;38.85;;;;;;;-11.66;57.04;102099.28;1745731;80;21520;-82
2021/01/21 00:11:22;;;;;;;87.40;40.10;;;;;;;-11.70;57.09;102107.49;1745536;80;21013;-81
2021/01/21 00:13:50;;;;;;;93.97;40.58;;;;;;;-11.76;57.29;102092.88;1782914;79;20982;-82
2021/01/21 00:16:18;;;;;;;81.65;39.30;;;;;;;-11.71;57.58;102091.45;1715692;82;21524;-83
2021/01/21 00:18:46;;;;;;;86.37;40.92;;;;;;;-11.60;57.48;102089.50;1722523;82;20951;-81
2021/01/21 00:21:14;;;;;;;83.72;39.55;;;;;;;-11.46;57.42;102077.58;1715942;82;21946;-83
2021/01/21 00:23:42;;;;;;;84.95;37.73;;;;;;;-11.31;57.24;102078.80;1745299;80;20999;-82
2021/01/21 00:26:11;;;;;;;86.45;38.30;;;;;;;-11.18;57.26;102071.41;1745463;80;21086;-80
2021/01/21 00:28:39;;;;;;;73.42;34.30;;;;;;;-11.04;56.96;102055.69;1745278;80;20943;-79
2021/01/21 00:31:08;;;;;;;76.42;35.58;;;;;;;-11.02;56.96;102048.64;1715851;82;21505;-80
2021/01/21 00:33:37;;;;;;;81.08;38.42;;;;;;;-10.96;56.78;102052.76;1782973;79;21227;-81
2021/01/21 00:36:06;;;;;;;73.90;33.42;;;;;;;-10.96;56.55;102044.27;1715829;82;21022;-81
2021/01/21 00:38:34;;;;;;;71.80;32.60;;;;;;;-10.94;56.55;102047.34;1722365;82;21038;-82
2021/01/21 00:41:04;;;;;;;60.90;32.20;;;;;;;-10.92;56.67;102047.42;1716139;82;21031;-84
2021/01/21 00:43:32;;;;;;;78.20;35.95;;;;;;;-10.87;56.87;102064.98;1780433;79;21368;-81
2021/01/21 00:46:01;;;;;;;73.95;34.95;;;;;;;-10.82;57.10;102067.37;1781258;79;21694;-80
2021/01/21 00:48:28;;;;;;;79.95;35.10;;;;;;;-10.89;57.30;102070.41;1780973;79;20970;-83
2021/01/21 00:50:59;;;;;;;77.03;33.98;;;;;;;-10.80;57.39;102072.50;1781136;79;20962;-82
2021/01/21 00:53:27;;;;;;;82.62;35.30;;;;;;;-10.64;56.97;102066.16;1781130;79;20947;-82
2021/01/21 00:55:56;;;;;;;72.17;32.40;;;;;;;-10.43;56.64;102068.86;1781311;79;21375;-81
2021/01/21 00:58:24;;;;;;;66.17;33.78;;;;;;;-10.32;55.88;102074.05;1781080;79;21142;-82
2021/01/21 01:00:52;;;;;;;70.47;32.83;;;;;;;-10.27;55.55;102062.83;1781048;78;21590;-83
2021/01/21 01:03:20;;;;;;;73.55;35.33;;;;;;;-10.20;55.36;102063.63;1781059;79;21033;-83
2021/01/21 01:05:50;;;;;;;58.28;29.35;;;;;;;-10.10;55.14;102063.65;1755414;79;20962;-83
2021/01/21 01:08:18;;;;;;;63.87;30.80;;;;;;;-10.09;54.77;102052.69;1781202;79;21384;-81
2021/01/21 01:10:46;;;;;;;68.75;30.90;;;;;;;-10.17;54.90;102063.75;1781067;79;22260;-81
2021/01/21 01:13:16;;;;;;;63.13;28.95;;;;;;;-10.17;54.92;102060.36;1779435;79;21515;-82
2021/01/21 01:15:45;;;;;;;74.95;38.30;;;;;;;-10.23;54.78;102071.06;1781124;79;20966;-83
2021/01/21 01:18:15;;;;;;;71.40;35.40;;;;;;;-10.34;55.27;102076.05;1781100;79;20970;-82
2021/01/21 01:20:44;;;;;;;74.50;34.65;;;;;;;-10.31;55.63;102072.41;1781202;79;21455;-81
2021/01/21 01:23:13;;;;;;;73.67;35.68;;;;;;;-10.27;55.40;102076.78;1781028;79;21225;-82
2021/01/21 01:25:41;;;;;;;85.85;39.80;;;;;;;-10.19;55.30;102080.56;1780987;79;21364;-81
2021/01/21 01:28:09;;;;;;;71.62;36.60;;;;;;;-10.15;55.25;102077.79;1781246;79;21634;-80
2021/01/21 01:30:37;;;;;;;70.85;37.50;;;;;;;-10.10;55.14;102074.66;1781157;79;20982;-79
2021/01/21 01:33:06;;;;;;;73.72;32.45;;;;;;;-9.99;54.96;102072.63;1781260;79;20902;-80
2021/01/21 01:35:36;;;;;;;100.35;44.73;;;;;;;-9.96;54.35;102069.37;1781397;79;21911;-78
2021/01/21 01:38:04;;;;;;;110.83;45.50;;;;;;;-10.16;54.09;102062.08;1755599;79;21545;-79
2021/01/21 01:40:32;;;;;;;134.82;57.13;;;;;;;-10.45;54.55;102062.84;1781266;79;21002;-80
2021/01/21 01:43:02;;;;;;;138.00;61.33;;;;;;;-10.74;55.10;102065.22;1755632;79;21037;-81
2021/01/21 01:45:30;;;;;;;137.37;58.58;;;;;;;-10.99;55.58;102058.05;1761713;79;20965;-79
2021/01/21 01:48:00;;;;;;;139.77;62.55;;;;;;;-11.15;56.11;102053.47;1759701;80;21273;-81
2021/01/21 01:50:30;;;;;;;146.72;60.10;;;;;;;-11.29;56.33;102046.43;1749654;80;21111;-80
2021/01/21 01:52:59;;;;;;;124.80;57.80;;;;;;;-11.41;56.63;102042.38;1762925;80;20945;-79
2021/01/21 01:55:28;;;;;;;140.40;61.35;;;;;;;-11.43;56.89;102041.03;1761585;80;20954;-77
2021/01/21 01:57:58;;;;;;;134.43;60.48;;;;;;;-11.45;57.03;102032.48;1758413;80;20954;-78
2021/01/21 02:00:28;;;;;;;131.43;59.90;;;;;;;-11.47;57.18;102039.13;1758290;79;21354;-78
2021/01/21 02:02:58;;;;;;;141.35;60.85;;;;;;;-11.50;57.28;102037.30;1759323;80;20966;-78
2021/01/21 02:05:29;;;;;;;130.52;57.83;;;;;;;-11.55;57.37;102035.34;1759606;80;20953;-79
2021/01/21 02:07:57;;;;;;;132.00;57.23;;;;;;;-11.55;57.52;102035.34;1759507;80;21021;-79
2021/01/21 02:10:27;;;;;;;145.00;60.70;;;;;;;-11.50;57.57;102040.23;1734782;80;20969;-79
2021/01/21 02:13:17;;;;;;;137.12;59.03;;;;;;;-11.42;57.52;102034.33;1759186;80;21892;-81
2021/01/21 02:16:00;;;;;;;130.97;57.67;;;;;;;-11.32;57.61;102036.53;1760061;80;20965;-81
2021/01/21 02:18:43;;;;;;;124.60;55.05;;;;;;;-11.10;57.49;102035.56;1736984;80;20993;-79
2021/01/21 02:21:47;;;;;;;131.40;56.35;;;;;;;-10.92;56.86;102034.36;1762834;80;21236;-80
2021/01/21 02:24:52;;;;;;;124.38;58.23;;;;;;;-10.79;56.91;102034.58;1758663;78;20930;-80
2021/01/21 02:27:20;;;;;;;117.30;53.48;;;;;;;-10.62;56.93;102032.89;1762848;79;20997;-79
2021/01/21 02:29:49;;;;;;;131.82;56.18;;;;;;;-10.46;56.71;102029.03;1760919;80;20965;-79
2021/01/21 02:32:54;;;;;;;117.93;52.83;;;;;;;-10.37;56.56;102032.41;1735421;80;21375;-77
2021/01/21 02:35:24;;;;;;;112.97;49.83;;;;;;;-10.26;56.36;102020.21;1759189;80;20973;-80
2021/01/21 02:37:54;;;;;;;107.63;51.58;;;;;;;-10.24;56.44;102024.95;1788454;80;21020;-77
2021/01/21 02:40:24;;;;;;;106.97;45.45;;;;;;;-10.23;56.61;102021.61;1759303;79;21128;-78
2021/01/21 02:42:54;;;;;;;95.15;39.80;;;;;;;-10.23;56.69;102018.67;1759648;80;21117;-77
2021/01/21 02:45:24;;;;;;;94.75;38.83;;;;;;;-10.25;56.89;102019.02;1780125;79;21026;-77
2021/01/21 02:47:55;;;;;;;79.90;37.15;;;;;;;-10.32;57.09;102013.60;1746255;80;20978;-77
2021/01/21 02:50:26;;;;;;;59.60;29.07;;;;;;;-10.32;57.21;102019.95;1714616;82;20935;-77
2021/01/21 02:53:01;;;;;;;72.17;32.23;;;;;;;-10.33;58.08;102015.28;1783011;78;21894;-76
2021/01/21 02:55:56;;;;;;;72.82;34.60;;;;;;;-10.33;57.98;102012.74;1782762;79;20955;-77
2021/01/21 02:58:35;;;;;;;79.37;35.95;;;;;;;-10.34;57.94;102014.79;1777333;79;20963;-80
2021/01/21 03:01:05;;;;;;;69.62;34.98;;;;;;;-10.25;58.11;102021.94;1715341;82;20994;-77
2021/01/21 03:03:34;;;;;;;59.18;27.02;;;;;;;-10.09;58.27;102020.98;1722359;82;21512;-77
2021/01/21 03:06:05;;;;;;;77.60;32.78;;;;;;;-9.98;58.45;102016.04;1715401;82;21747;-78
2021/01/21 03:08:34;;;;;;;70.85;31.90;;;;;;;-9.87;58.28;102010.16;1745470;80;21460;-79
2021/01/21 03:11:10;;;;;;;80.95;33.53;;;;;;;-9.79;58.41;102008.84;1782706;79;21510;-80
2021/01/21 03:13:41;;;;;;;61.08;29.37;;;;;;;-9.78;58.61;102000.45;1692019;82;20979;-81
2021/01/21 03:16:10;;;;;;;64.87;29.70;;;;;;;-9.76;58.86;102005.17;1750711;80;21007;-79
2021/01/21 03:18:38;;;;;;;83.67;35.70;;;;;;;-9.74;59.23;102007.38;1750654;80;21777;-78
2021/01/21 03:21:07;;;;;;;85.12;38.88;;;;;;;-9.73;58.54;102013.34;1715747;81;20983;-79
2021/01/21 03:23:43;;;;;;;82.62;37.93;;;;;;;-9.73;58.24;102014.62;1721838;82;20959;-78
2021/01/21 03:26:13;;;;;;;88.00;39.40;;;;;;;-9.76;57.88;102006.44;1715592;82;21011;-77
2021/01/21 03:28:43;;;;;;;88.60;40.48;;;;;;;-9.84;57.87;102001.03;1782791;79;21049;-77
2021/01/21 03:31:12;;;;;;;84.95;42.80;;;;;;;-9.87;57.99;102012.70;1745350;80;21058;-81
2021/01/21 03:33:41;;;;;;;92.88;43.87;;;;;;;-9.88;58.42;102011.84;1745322;80;21333;-81
2021/01/21 03:36:09;;;;;;;97.92;47.50;;;;;;;-9.90;58.44;102010.89;1745484;80;20955;-82
2021/01/21 03:38:39;;;;;;;111.20;50.63;;;;;;;-9.87;58.52;101998.73;1782972;79;20951;-81
2021/01/21 03:41:09;;;;;;;94.07;39.90;;;;;;;-9.81;58.60;101992.69;1691695;81;20943;-78
2021/01/21 03:43:39;;;;;;;90.50;41.00;;;;;;;-9.75;58.77;102000.98;1722363;82;21828;-79
2021/01/21 03:46:09;;;;;;;85.30;41.05;;;;;;;-9.73;58.77;101995.58;1714790;82;21492;-81
2021/01/21 03:48:38;;;;;;;81.00;39.42;;;;;;;-9.71;58.90;101996.52;1757414;78;21018;-81
2021/01/21 03:51:17;;;;;;;84.35;36.98;;;;;;;-9.66;59.05;101988.30;1712993;82;21046;-83
2021/01/21 03:53:49;;;;;;;80.10;37.88;;;;;;;-9.55;59.38;101994.26;1749156;79;20951;-82
2021/01/21 03:56:22;;;;;;;80.32;35.95;;;;;;;-9.49;59.30;101997.94;1715437;82;21050;-82
2021/01/21 03:58:52;;;;;;;77.17;35.40;;;;;;;-9.37;59.39;102001.41;1722153;82;21654;-85
2021/01/21 04:01:21;;;;;;;76.97;34.92;;;;;;;-9.22;59.16;101999.53;1715896;82;21077;-83
2021/01/21 04:03:51;;;;;;;75.78;35.65;;;;;;;-9.13;58.87;101995.25;1745708;80;21514;-84
2021/01/21 04:06:21;;;;;;;69.58;36.60;;;;;;;-9.12;58.81;101991.03;1782863;79;21045;-81
2021/01/21 04:08:51;;;;;;;79.55;36.28;;;;;;;-9.03;59.20;101997.76;1715729;82;21077;-82
2021/01/21 04:11:24;;;;;;;73.97;33.33;;;;;;;-8.82;58.97;101996.13;1721166;82;21054;-80
2021/01/21 04:13:53;;;;;;;72.45;34.35;;;;;;;-8.64;58.53;101994.73;1715567;82;20991;-82
2021/01/21 04:16:22;;;;;;;75.10;34.80;;;;;;;-8.50;58.12;101994.01;1745294;80;21069;-81
2021/01/21 04:18:50;;;;;;;72.42;29.80;;;;;;;-8.39;57.93;101998.23;1783235;79;20919;-83
2021/01/21 04:21:21;;;;;;;67.47;34.45;;;;;;;-8.28;57.58;102008.83;1745947;80;20965;-83
2021/01/21 04:23:51;;;;;;;69.60;33.38;;;;;;;-8.26;57.78;102004.67;1715859;82;20979;-80
2021/01/21 04:26:21;;;;;;;81.80;36.35;;;;;;;-8.20;57.20;102007.05;1781872;79;21022;-79
2021/01/21 04:28:50;;;;;;;66.47;34.80;;;;;;;-8.17;57.31;102001.21;1716263;82;20983;-80
2021/01/21 04:31:19;;;;;;;72.25;33.35;;;;;;;-8.12;57.05;102009.47;1723136;82;20963;-79
2021/01/21 04:33:50;;;;;;;71.05;36.25;;;;;;;-8.07;57.09;102004.59;1716502;82;21472;-83
2021/01/21 04:36:40;;;;;;;81.22;37.05;;;;;;;-8.01;56.62;102009.89;1776103;80;20943;-81
2021/01/21 04:39:08;;;;;;;61.85;32.35;;;;;;;-7.97;56.19;102005.80;1782864;79;20955;-83
2021/01/21 04:41:39;;;;;;;81.57;38.02;;;;;;;-8.01;55.86;102009.89;1715803;82;21544;-79
2021/01/21 04:44:12;;;;;;;72.08;35.90;;;;;;;-8.14;55.81;102012.77;1713299;82;21066;-83
2021/01/21 04:46:42;;;;;;;85.50;37.90;;;;;;;-8.29;56.04;102007.08;1716911;82;21152;-80
2021/01/21 04:49:11;;;;;;;89.65;42.80;;;;;;;-8.42;56.37;102008.32;1704044;83;21020;-80
2021/01/21 04:51:40;;;;;;;82.92;41.40;;;;;;;-8.55;56.66;102007.81;1717161;82;20955;-83
2021/01/21 04:54:10;;;;;;;94.37;42.20;;;;;;;-8.67;57.08;102008.98;1680255;83;20970;-81
2021/01/21 04:56:49;;;;;;;89.70;42.73;;;;;;;-8.74;57.40;102014.62;1715995;82;21508;-83
2021/01/21 04:59:27;;;;;;;90.70;40.38;;;;;;;-8.81;57.94;102008.02;1684718;85;22144;-83
2021/01/21 05:01:57;;;;;;;77.60;36.35;;;;;;;-8.84;58.42;102004.50;1647511;84;20982;-83
2021/01/21 05:04:27;;;;;;;84.45;38.50;;;;;;;-8.90;58.88;101996.61;1689183;83;21493;-83
2021/01/21 05:07:29;;;;;;;81.15;39.05;;;;;;;-8.97;59.85;102005.65;1890181;76;22303;-85
2021/01/21 05:10:02;;;;;;;75.00;34.33;;;;;;;-9.06;60.58;102014.16;1861365;77;21597;-83
2021/01/21 05:12:36;;;;;;;83.37;36.63;;;;;;;-9.10;61.18;102011.02;1791713;78;22070;-87
2021/01/21 05:15:14;;;;;;;75.83;37.00;;;;;;;-9.18;61.68;102009.02;1760136;80;21432;-84
2021/01/21 05:18:00;;;;;;;87.25;39.23;;;;;;;-9.13;61.92;102002.00;1791262;78;20936;-83
2021/01/21 05:20:40;;;;;;;72.58;34.83;;;;;;;-9.03;62.16;102006.66;1788092;78;21405;-84
2021/01/21 05:23:28;;;;;;;88.35;39.27;;;;;;;-8.93;62.36;102021.91;1791174;78;21524;-80
2021/01/21 05:25:59;;;;;;;95.28;42.83;;;;;;;-8.87;62.37;102015.41;1765235;78;21699;-80
2021/01/21 05:28:35;;;;;;;93.17;41.35;;;;;;;-8.74;62.51;102022.25;1788511;78;21482;-80
2021/01/21 05:31:07;;;;;;;98.55;46.42;;;;;;;-8.57;62.38;102006.02;1790395;78;20952;-79
2021/01/21 05:33:38;;;;;;;93.70;45.23;;;;;;;-8.43;62.11;102012.92;1790848;78;20975;-80
2021/01/21 05:36:17;;;;;;;104.17;45.38;;;;;;;-8.38;62.01;102014.83;1767018;78;21350;-83
2021/01/21 05:39:06;;;;;;;94.42;43.13;;;;;;;-8.28;62.01;102010.09;1769658;78;21191;-81
2021/01/21 05:41:53;;;;;;;85.22;39.08;;;;;;;-8.26;61.81;102009.34;1791478;78;21031;-80
2021/01/21 05:44:26;;;;;;;84.97;42.65;;;;;;;-8.26;61.81;102021.21;1766549;78;20976;-81
2021/01/21 05:47:06;;;;;;;87.22;43.17;;;;;;;-8.27;61.98;102025.44;1789862;78;20920;-79
2021/01/21 05:49:35;;;;;;;87.80;41.75;;;;;;;-8.27;62.19;102015.64;1765519;78;20988;-80
2021/01/21 05:52:05;;;;;;;85.92;41.02;;;;;;;-8.28;62.48;102010.96;1790877;78;21250;-77
2021/01/21 05:54:34;;;;;;;85.38;38.35;;;;;;;-8.22;62.75;102030.30;1790952;78;21524;-83
2021/01/21 05:57:04;;;;;;;75.83;36.42;;;;;;;-8.08;62.80;102035.92;1764354;78;21027;-82
2021/01/21 05:59:35;;;;;;;76.33;35.95;;;;;;;-7.87;62.69;102032.08;1791227;78;21059;-83
2021/01/21 06:02:23;;;;;;;74.20;37.10;;;;;;;-7.61;62.47;102035.58;1890194;76;22624;-81
2021/01/21 06:05:01;;;;;;;76.05;36.73;;;;;;;-7.51;62.31;102039.35;1827101;77;21032;-82
2021/01/21 06:07:34;;;;;;;69.92;35.23;;;;;;;-7.36;62.05;102037.75;1799512;77;21018;-81
2021/01/21 06:10:04;;;;;;;76.00;37.33;;;;;;;-7.29;61.72;102032.08;1827568;77;20970;-84
2021/01/21 06:12:32;;;;;;;84.95;36.20;;;;;;;-7.25;61.62;102030.49;1827994;77;20965;-82
2021/01/21 06:15:11;;;;;;;;;;;;;;;;;;;;;
2021/01/21 06:17:34;;;;;;;73.97;34.25;;;;;;;-7.12;61.58;102029.70;1826444;77;20949;-82
2021/01/21 06:20:06;;;;;;;80.92;37.13;;;;;;;-7.10;61.32;102024.25;1793365;77;21953;-82
2021/01/21 06:22:37;;;;;;;71.10;35.17;;;;;;;-7.13;61.24;102024.56;1827910;77;21546;-83
2021/01/21 06:25:18;;;;;;;76.10;36.38;;;;;;;-7.17;61.47;102020.17;1827885;77;21103;-82
2021/01/21 06:27:46;;;;;;;78.65;35.20;;;;;;;-7.17;61.70;102018.89;1827588;77;21048;-84
2021/01/21 06:30:18;;;;;;;72.70;34.67;;;;;;;-7.14;61.94;102016.03;1827894;77;20950;-81
2021/01/21 06:33:03;;;;;;;73.40;33.28;;;;;;;-7.13;61.96;102022.02;1827775;77;21122;-82
2021/01/21 06:35:48;;;;;;;75.32;35.40;;;;;;;-7.20;62.22;102010.74;1828024;77;21380;-84
2021/01/21 06:38:19;;;;;;;64.77;32.83;;;;;;;-7.28;62.72;102008.32;1860955;77;21005;-84
2021/01/21 06:40:53;;;;;;;68.60;37.65;;;;;;;-7.31;62.99;102005.67;1828146;77;20966;-83
2021/01/21 06:43:25;;;;;;;70.08;33.92;;;;;;;-7.28;63.29;102007.45;1827742;77;20903;-85
2021/01/21 06:45:57;;;;;;;70.00;33.58;;;;;;;-7.20;63.25;102013.30;1827480;77;21204;-85
2021/01/21 06:48:28;;;;;;;60.92;31.95;;;;;;;-7.14;63.33;102023.67;1827738;77;21053;-84
2021/01/21 06:50:57;;;;;;;71.45;31.23;;;;;;;-7.03;63.45;102022.78;1827949;77;21021;-84
2021/01/21 06:53:27;;;;;;;62.88;32.65;;;;;;;-6.82;63.29;102034.14;1828197;77;21045;-83
2021/01/21 06:55:56;;;;;;;64.85;34.43;;;;;;;-6.67;63.04;102034.66;1861183;77;21635;-82
2021/01/21 06:58:49;;;;;;;72.03;33.10;;;;;;;-6.47;62.87;102031.48;1827818;77;22540;-81
2021/01/21 07:01:37;;;;;;;66.05;32.80;;;;;;;-6.28;62.88;102040.59;1816290;78;21017;-80
2021/01/21 07:04:18;;;;;;;63.48;30.27;;;;;;;-6.00;62.62;102029.09;1803275;78;21597;-82
2021/01/21 07:07:03;;;;;;;68.95;32.75;;;;;;;-5.85;61.70;102012.92;1803901;78;21057;-79
2021/01/21 07:09:29;;;;;;;60.67;31.25;;;;;;;-5.87;61.58;102014.17;1803668;78;21005;-79
2021/01/21 07:12:00;;;;;;;53.02;27.82;;;;;;;-5.83;61.63;102015.11;1803040;78;21129;-80
2021/01/21 07:14:33;;;;;;;60.85;30.02;;;;;;;-5.73;61.45;102017.13;1802878;78;21544;-83
2021/01/21 07:17:05;;;;;;;66.05;31.57;;;;;;;-5.65;61.43;102014.78;1803002;77;20938;-79
2021/01/21 07:19:40;;;;;;;60.12;29.45;;;;;;;-5.56;61.37;102013.77;1803871;78;20895;-80
2021/01/21 07:22:13;;;;;;;63.38;31.07;;;;;;;-5.46;61.34;101999.58;1805562;78;21026;-81
2021/01/21 07:25:03;;;;;;;64.32;32.35;;;;;;;-5.32;61.38;102012.73;1806313;78;21177;-80
2021/01/21 07:27:34;;;;;;;59.15;28.92;;;;;;;-5.20;61.05;102006.69;1805605;77;21021;-80
2021/01/21 07:30:22;;;;;;;54.18;26.50;;;;;;;-5.10;60.79;101997.56;1802806;77;21033;-79
2021/01/21 07:33:21;;;;;;;65.08;28.23;;;;;;;-5.06;60.67;101998.10;1805672;78;20962;-80
2021/01/21 07:35:51;;;;;;;54.58;27.32;;;;;;;-4.98;60.71;101995.31;1802536;77;20929;-81
2021/01/21 07:38:47;;;;;;;64.42;30.37;;;;;;;-5.00;60.79;101987.62;1776946;78;22800;-83
2021/01/21 07:41:48;;;;;;;49.27;26.17;;;;;;;-4.93;60.67;101981.39;1802605;77;20966;-83
2021/01/21 07:44:16;;;;;;;55.10;25.80;;;;;;;-4.91;60.69;101977.14;1800495;77;20989;-82
2021/01/21 07:46:49;;;;;;;45.83;23.57;;;;;;;-4.84;60.71;101980.34;1832463;77;20930;-82
2021/01/21 07:49:27;;;;;;;48.87;25.12;;;;;;;-4.81;60.73;101974.00;1802528;78;20958;-83
2021/01/21 07:52:05;;;;;;;49.40;24.55;;;;;;;-4.84;60.82;101976.08;1802309;77;21494;-82
2021/01/21 07:54:52;;;;;;;53.35;27.17;;;;;;;-4.87;61.00;101974.73;1801620;78;21044;-80
2021/01/21 07:57:23;;;;;;;49.93;25.35;;;;;;;-4.80;61.15;101984.29;1802517;78;20910;-81
2021/01/21 08:00:08;;;;;;;48.15;25.40;;;;;;;-4.68;61.21;101981.16;1802258;78;20942;-79
2021/01/21 08:02:51;;;;;;;48.10;23.38;;;;;;;-4.53;61.17;101975.55;1825005;77;20938;-80
2021/01/21 08:05:25;;;;;;;49.45;25.43;;;;;;;-4.40;60.83;101985.26;1826844;77;20950;-79
2021/01/21 08:07:55;;;;;;;49.55;26.33;;;;;;;-4.32;60.92;101976.88;1826972;77;21180;-81
2021/01/21 08:10:38;;;;;;;42.80;23.42;;;;;;;-4.21;60.85;101982.69;1827235;77;20982;-80
2021/01/21 08:13:15;;;;;;;53.63;25.62;;;;;;;-4.08;60.64;101974.02;1826785;77;21018;-80
2021/01/21 08:15:44;;;;;;;58.15;29.42;;;;;;;-3.91;60.41;101972.69;1827166;77;20914;-81
2021/01/21 08:18:16;;;;;;;50.67;24.37;;;;;;;-3.75;60.00;101964.48;1800809;77;20941;-81
2021/01/21 08:20:45;;;;;;;50.40;24.57;;;;;;;-3.76;59.40;101950.34;1826610;77;21478;-81
2021/01/21 08:23:16;;;;;;;48.70;24.37;;;;;;;-3.70;59.55;101964.99;1826271;77;21005;-81
2021/01/21 08:25:53;;;;;;;50.55;25.12;;;;;;;-3.68;59.57;101961.62;1827133;77;20962;-84
2021/01/21 08:28:28;;;;;;;44.98;24.72;;;;;;;-3.66;59.65;101965.50;1826939;77;20958;-82
2021/01/21 08:30:57;;;;;;;56.45;25.62;;;;;;;-3.55;59.54;101966.58;1827216;77;20997;-77
2021/01/21 08:33:28;;;;;;;53.98;27.17;;;;;;;-3.53;59.58;101966.20;1827020;77;21037;-78
2021/01/21 08:38:50;;;;;;;51.18;26.30;;;;;;;-3.48;59.72;101973.98;1852343;77;22710;-78
2021/01/21 08:41:21;;;;;;;52.45;27.90;;;;;;;-3.52;59.80;101972.19;1788076;78;20934;-78
2021/01/21 08:43:49;;;;;;;46.90;26.73;;;;;;;-3.53;60.02;101966.20;1719616;82;22048;-81
2021/01/21 08:46:26;;;;;;;52.10;27.17;;;;;;;-3.49;60.12;101965.42;1820004;78;20938;-82
2021/01/21 08:49:11;;;;;;;61.05;30.62;;;;;;;-3.50;59.96;101958.55;1809803;78;21463;-76
2021/01/21 08:51:44;;;;;;;53.33;26.50;;;;;;;-3.57;60.32;101953.72;1788032;78;20982;-76
2021/01/21 08:54:19;;;;;;;;;;;;;;;-3.52;60.34;101944.84;1790798;78;20965;-79
2021/01/21 08:57:10;;;;;;;53.70;25.30;;;;;;;-3.48;60.45;101945.77;1787110;78;22707;-80
2021/01/21 09:02:01;;;;;;;55.15;31.70;;;;;;;-3.40;60.52;101944.20;1844958;75;22759;-78
2021/01/21 09:07:31;;;;;;;52.45;29.32;;;;;;;-3.39;60.73;101934.40;1837873;77;26837;-78
2021/01/21 09:13:24;;;;;;;60.12;31.55;;;;;;;-3.22;60.86;101941.99;1820374;77;23399;-81
2021/01/21 09:16:05;;;;;;;64.82;32.20;;;;;;;-3.14;60.60;101942.97;1793477;78;20928;-79
2021/01/21 09:18:46;;;;;;;58.08;28.98;;;;;;;-3.01;60.53;101933.80;1728765;81;21739;-80
2021/01/21 09:21:16;;;;;;;55.40;29.35;;;;;;;-2.92;60.38;101931.37;1738065;81;21594;-81
2021/01/21 09:23:51;;;;;;;58.10;29.05;;;;;;;-2.76;60.27;101922.25;1737726;81;21049;-79
2021/01/21 09:26:24;;;;;;;66.62;36.65;;;;;;;-2.53;60.04;101920.45;1706559;81;21498;-79
2021/01/21 09:28:54;;;;;;;62.75;34.40;;;;;;;-2.36;59.33;101918.11;1728998;81;20935;-79
2021/01/21 09:31:28;;;;;;;63.92;34.38;;;;;;;-2.19;59.16;101911.94;1766111;81;21345;-82
2021/01/21 09:33:58;;;;;;;65.52;34.25;;;;;;;-2.05;58.64;101903.11;1728857;81;21507;-79
2021/01/21 09:36:33;;;;;;;59.38;32.53;;;;;;;-1.99;58.20;101900.20;1737981;81;20970;-80
2021/01/21 09:39:01;;;;;;;57.00;31.10;;;;;;;-1.92;58.00;101894.70;1714794;81;20950;-80
2021/01/21 09:41:32;;;;;;;67.95;33.48;;;;;;;-1.90;58.00;101893.02;1728728;81;20966;-78
2021/01/21 09:44:03;;;;;;;61.25;31.40;;;;;;;-1.86;57.94;101890.08;1736977;81;21225;-76
2021/01/21 09:46:35;;;;;;;66.05;32.85;;;;;;;-1.85;57.82;101880.22;1728831;81;20962;-77
2021/01/21 09:49:03;;;;;;;61.95;31.52;;;;;;;-1.87;58.14;101880.19;1737993;81;20963;-76
2021/01/21 09:51:31;;;;;;;58.92;32.38;;;;;;;-1.81;58.19;101877.70;1728898;81;20959;-77
2021/01/21 09:54:02;;;;;;;66.60;34.40;;;;;;;-1.75;58.28;101875.63;1737556;81;20955;-75
2021/01/21 09:56:32;;;;;;;56.58;32.88;;;;;;;-1.69;58.16;101880.42;1728803;81;21156;-80
2021/01/21 09:59:03;;;;;;;56.55;31.68;;;;;;;-1.60;57.93;101878.38;1731274;81;21028;-80
2021/01/21 10:01:34;;;;;;;56.68;30.92;;;;;;;-1.67;58.02;101878.73;1756634;81;20954;-80
2021/01/21 10:04:02;;;;;;;53.58;29.85;;;;;;;-1.73;58.20;101879.09;1737936;81;20978;-79
2021/01/21 10:06:31;;;;;;;61.35;31.93;;;;;;;-1.78;58.37;101871.72;1728857;81;20962;-80
2021/01/21 10:09:00;;;;;;;56.45;35.28;;;;;;;-1.83;58.82;101866.96;1738062;81;20978;-82
2021/01/21 10:11:39;;;;;;;56.45;31.87;;;;;;;-1.81;58.87;101857.56;1727883;81;21098;-80
2021/01/21 10:14:07;;;;;;;60.85;32.35;;;;;;;-1.74;58.80;101856.34;1740793;81;20973;-77
2021/01/21 10:16:37;;;;;;;64.70;32.53;;;;;;;-1.70;58.85;101858.11;1721696;82;21066;-79
2021/01/21 10:19:06;;;;;;;67.37;33.40;;;;;;;-1.69;58.84;101848.67;1740749;81;20997;-81
2021/01/21 10:21:35;;;;;;;65.87;33.13;;;;;;;-1.66;58.97;101848.73;1721598;82;21836;-78
2021/01/21 10:24:04;;;;;;;59.08;34.00;;;;;;;-1.64;58.96;101848.32;1740269;81;21534;-80
2021/01/21 10:26:32;;;;;;;69.10;40.38;;;;;;;-1.69;58.96;101841.84;1721145;82;20955;-82
2021/01/21 10:29:03;;;;;;;60.60;33.65;;;;;;;-1.70;59.16;101837.53;1740175;81;20938;-80
2021/01/21 10:31:31;;;;;;;65.30;34.78;;;;;;;-1.72;59.29;101839.22;1721087;82;20983;-79
2021/01/21 10:34:02;;;;;;;70.50;38.10;;;;;;;-1.59;59.37;101841.94;1740191;81;21815;-81
2021/01/21 10:36:32;;;;;;;69.82;36.77;;;;;;;-1.46;59.56;101841.20;1721148;82;20974;-79
2021/01/21 10:39:00;;;;;;;69.45;37.58;;;;;;;-1.32;59.30;101849.05;1740081;81;20977;-80
2021/01/21 10:41:30;;;;;;;65.57;38.00;;;;;;;-1.12;59.19;101842.34;1721065;82;21018;-80
2021/01/21 10:43:58;;;;;;;69.37;36.98;;;;;;;-0.96;58.80;101841.17;1766392;80;20970;-85
2021/01/21 10:46:42;;;;;;;64.10;34.50;;;;;;;-0.90;58.53;101838.22;1721146;82;21987;-82
2021/01/21 10:49:10;;;;;;;60.63;33.50;;;;;;;-0.84;58.62;101830.98;1740164;81;21048;-81
2021/01/21 10:51:40;;;;;;;62.83;37.23;;;;;;;-0.80;58.53;101834.02;1719233;82;21511;-80
2021/01/21 10:54:09;;;;;;;63.42;35.95;;;;;;;-0.82;58.62;101825.41;1740151;81;21033;-81
2021/01/21 10:56:37;;;;;;;66.50;35.00;;;;;;;-0.87;58.78;101823.21;1721196;82;21440;-79
2021/01/21 10:59:06;;;;;;;65.40;34.98;;;;;;;-0.86;59.01;101812.08;1738896;81;21041;-80
2021/01/21 11:01:35;;;;;;;66.72;36.20;;;;;;;-0.85;59.03;101808.63;1790668;78;21045;-84
2021/01/21 11:04:04;;;;;;;66.00;36.20;;;;;;;-0.86;58.94;101806.49;1721257;82;20943;-81
2021/01/21 11:06:34;;;;;;;65.72;38.35;;;;;;;-0.80;59.15;101796.67;1740221;81;20923;-80
2021/01/21 11:09:02;;;;;;;63.33;35.60;;;;;;;-0.68;58.96;101802.31;1721343;82;21582;-81
2021/01/21 11:11:31;;;;;;;62.17;35.35;;;;;;;-0.61;58.84;101802.77;1739453;81;21344;-78
2021/01/21 11:14:01;;;;;;;57.40;30.17;;;;;;;-0.64;58.98;101804.05;1742539;81;20923;-78
2021/01/21 11:16:29;;;;;;;45.20;26.48;;;;;;;-0.66;59.16;101803.18;1727898;81;20978;-77
2021/01/21 11:18:57;;;;;;;41.28;24.20;;;;;;;-0.73;59.35;101805.30;1711349;82;21028;-77
2021/01/21 11:21:29;;;;;;;34.27;20.60;;;;;;;-0.81;59.67;101792.79;1727702;81;21054;-81
2021/01/21 11:23:57;;;;;;;32.13;17.67;;;;;;;-0.88;59.70;101790.17;1711267;82;21183;-82
2021/01/21 11:26:25;;;;;;;29.95;18.37;;;;;;;-0.95;59.92;101788.41;1727773;81;21082;-83
2021/01/21 11:28:54;;;;;;;37.95;21.20;;;;;;;-1.06;60.25;101783.63;1782754;79;21443;-81
2021/01/21 11:31:23;;;;;;;35.90;21.27;;;;;;;-1.12;60.78;101796.02;1711278;82;21396;-79
2021/01/21 11:33:52;;;;;;;40.28;21.82;;;;;;;-1.15;61.10;101784.42;1727657;81;20951;-79
2021/01/21 11:36:20;;;;;;;37.53;20.15;;;;;;;-1.14;61.32;101789.13;1711146;82;21756;-78
2021/01/21 11:38:48;;;;;;;37.63;21.23;;;;;;;-1.18;61.46;101778.38;1727778;81;21590;-79
2021/01/21 11:41:40;;;;;;;36.38;20.15;;;;;;;-1.31;61.84;101775.73;1782893;78;21026;-80
2021/01/21 11:44:48;;;;;;;41.37;22.42;;;;;;;-1.37;62.11;101769.24;1802169;79;20966;-78